Cataldo, Idaho
Current Conditions -  °F | °C
As of 4:35 AM on Sunday 25 Jan 2015 (Local Time) from KCOE Reporting Station
Overcast Overcast  
Wind Chill: 36°   Ceiling: 2000
Heat Index: 41°   Visibility: 10mi
Dew Point: 39°   Wind: 8mph
Humidity: 93%   Direction: 170°S
Pressure: 30.21"   Gusts: NA
Location:  47.55°N, 116.33°W
Report Text: KCOE 251235Z AUTO 17007KT 10SM OVC020 05/04 A3021 RMK AO1
Loading
Personal Weather Stations






























Interactive Weather Map New forecast layout! Learn more

10-Day Weather Forecast

Advertisements
Track Severe Weather on mobile